sensor_id;sensor_type;location;lat;lon;timestamp;P1;durP1;ratioP1;P2;durP2;ratioP2
44832;SDS011;30569;51.252;9.830;2023-05-13T00:01:53;6.70;;;4.75;;
44832;SDS011;30569;51.252;9.830;2023-05-13T00:04:19;6.90;;;4.95;;
44832;SDS011;30569;51.252;9.830;2023-05-13T00:06:44;8.38;;;4.57;;
44832;SDS011;30569;51.252;9.830;2023-05-13T00:09:10;9.23;;;4.57;;
44832;SDS011;30569;51.252;9.830;2023-05-13T00:11:36;6.75;;;4.63;;
44832;SDS011;30569;51.252;9.830;2023-05-13T00:14:02;6.20;;;4.30;;
44832;SDS011;30569;51.252;9.830;2023-05-13T00:16:28;6.85;;;4.43;;
44832;SDS011;30569;51.252;9.830;2023-05-13T00:18:54;7.78;;;4.57;;
44832;SDS011;30569;51.252;9.830;2023-05-13T00:21:20;9.30;;;4.57;;
44832;SDS011;30569;51.252;9.830;2023-05-13T00:23:46;9.75;;;4.20;;
44832;SDS011;30569;51.252;9.830;2023-05-13T00:26:12;9.25;;;4.15;;
44832;SDS011;30569;51.252;9.830;2023-05-13T00:28:38;8.55;;;4.32;;
44832;SDS011;30569;51.252;9.830;2023-05-13T00:31:04;8.50;;;4.65;;
44832;SDS011;30569;51.252;9.830;2023-05-13T00:33:30;8.10;;;4.40;;
44832;SDS011;30569;51.252;9.830;2023-05-13T00:35:56;8.27;;;5.05;;
44832;SDS011;30569;51.252;9.830;2023-05-13T00:38:22;9.18;;;4.28;;
44832;SDS011;30569;51.252;9.830;2023-05-13T00:40:48;12.13;;;4.68;;
44832;SDS011;30569;51.252;9.830;2023-05-13T00:43:14;8.35;;;4.50;;
44832;SDS011;30569;51.252;9.830;2023-05-13T00:45:40;6.38;;;4.30;;
44832;SDS011;30569;51.252;9.830;2023-05-13T00:48:06;7.72;;;4.85;;
44832;SDS011;30569;51.252;9.830;2023-05-13T00:50:32;7.72;;;4.40;;
44832;SDS011;30569;51.252;9.830;2023-05-13T00:52:58;8.75;;;3.83;;
44832;SDS011;30569;51.252;9.830;2023-05-13T00:55:24;6.28;;;4.25;;
44832;SDS011;30569;51.252;9.830;2023-05-13T00:57:50;7.85;;;4.70;;
44832;SDS011;30569;51.252;9.830;2023-05-13T01:00:17;8.77;;;3.95;;
44832;SDS011;30569;51.252;9.830;2023-05-13T01:02:44;7.95;;;3.97;;
44832;SDS011;30569;51.252;9.830;2023-05-13T01:08:17;8.40;;;4.20;;
44832;SDS011;30569;51.252;9.830;2023-05-13T01:10:54;10.27;;;4.10;;
44832;SDS011;30569;51.252;9.830;2023-05-13T01:13:23;6.47;;;4.10;;
44832;SDS011;30569;51.252;9.830;2023-05-13T01:15:55;9.88;;;4.20;;
44832;SDS011;30569;51.252;9.830;2023-05-13T01:18:29;9.30;;;5.15;;
44832;SDS011;30569;51.252;9.830;2023-05-13T01:21:00;9.30;;;3.95;;
44832;SDS011;30569;51.252;9.830;2023-05-13T01:23:26;6.35;;;4.50;;
44832;SDS011;30569;51.252;9.830;2023-05-13T01:25:52;7.75;;;4.38;;
44832;SDS011;30569;51.252;9.830;2023-05-13T01:28:18;11.02;;;4.30;;
44832;SDS011;30569;51.252;9.830;2023-05-13T01:30:45;8.02;;;4.47;;
44832;SDS011;30569;51.252;9.830;2023-05-13T01:33:11;7.50;;;4.28;;
44832;SDS011;30569;51.252;9.830;2023-05-13T01:35:38;10.07;;;4.43;;
44832;SDS011;30569;51.252;9.830;2023-05-13T01:38:05;6.68;;;4.30;;
44832;SDS011;30569;51.252;9.830;2023-05-13T01:40:31;9.82;;;4.93;;
44832;SDS011;30569;51.252;9.830;2023-05-13T01:42:58;9.02;;;4.47;;
44832;SDS011;30569;51.252;9.830;2023-05-13T01:45:26;8.63;;;4.22;;
44832;SDS011;30569;51.252;9.830;2023-05-13T01:47:55;7.13;;;4.00;;
44832;SDS011;30569;51.252;9.830;2023-05-13T01:50:21;6.43;;;4.43;;
44832;SDS011;30569;51.252;9.830;2023-05-13T01:52:47;6.65;;;3.90;;
44832;SDS011;30569;51.252;9.830;2023-05-13T01:55:13;9.75;;;4.45;;
44832;SDS011;30569;51.252;9.830;2023-05-13T01:57:39;9.13;;;4.05;;
44832;SDS011;30569;51.252;9.830;2023-05-13T02:00:05;6.68;;;3.78;;
44832;SDS011;30569;51.252;9.830;2023-05-13T02:02:32;8.27;;;4.70;;
44832;SDS011;30569;51.252;9.830;2023-05-13T02:04:58;6.13;;;4.18;;
44832;SDS011;30569;51.252;9.830;2023-05-13T02:07:24;11.48;;;4.63;;
44832;SDS011;30569;51.252;9.830;2023-05-13T02:09:50;7.70;;;5.00;;
44832;SDS011;30569;51.252;9.830;2023-05-13T02:12:19;9.75;;;4.57;;
44832;SDS011;30569;51.252;9.830;2023-05-13T02:14:45;8.32;;;4.20;;
44832;SDS011;30569;51.252;9.830;2023-05-13T02:17:11;6.13;;;4.40;;
44832;SDS011;30569;51.252;9.830;2023-05-13T02:19:37;6.25;;;4.30;;
44832;SDS011;30569;51.252;9.830;2023-05-13T02:22:03;5.85;;;4.28;;
44832;SDS011;30569;51.252;9.830;2023-05-13T02:24:29;6.05;;;4.32;;
44832;SDS011;30569;51.252;9.830;2023-05-13T02:26:55;7.22;;;4.80;;
44832;SDS011;30569;51.252;9.830;2023-05-13T02:29:21;19.10;;;4.85;;
44832;SDS011;30569;51.252;9.830;2023-05-13T02:31:47;6.28;;;4.13;;
44832;SDS011;30569;51.252;9.830;2023-05-13T02:34:12;8.52;;;4.40;;
44832;SDS011;30569;51.252;9.830;2023-05-13T02:36:38;9.43;;;4.97;;
44832;SDS011;30569;51.252;9.830;2023-05-13T02:39:05;7.28;;;4.75;;
44832;SDS011;30569;51.252;9.830;2023-05-13T02:41:31;6.85;;;4.63;;
44832;SDS011;30569;51.252;9.830;2023-05-13T02:43:56;8.43;;;4.55;;
44832;SDS011;30569;51.252;9.830;2023-05-13T02:46:22;8.17;;;4.17;;
44832;SDS011;30569;51.252;9.830;2023-05-13T02:48:48;8.97;;;4.40;;
44832;SDS011;30569;51.252;9.830;2023-05-13T02:51:14;7.57;;;4.32;;
44832;SDS011;30569;51.252;9.830;2023-05-13T02:53:40;6.60;;;4.25;;
44832;SDS011;30569;51.252;9.830;2023-05-13T02:56:06;7.40;;;4.05;;
44832;SDS011;30569;51.252;9.830;2023-05-13T02:58:33;6.53;;;4.50;;
44832;SDS011;30569;51.252;9.830;2023-05-13T03:00:59;8.85;;;4.80;;
44832;SDS011;30569;51.252;9.830;2023-05-13T03:03:25;5.32;;;3.83;;
44832;SDS011;30569;51.252;9.830;2023-05-13T03:05:50;6.93;;;4.72;;
44832;SDS011;30569;51.252;9.830;2023-05-13T03:08:16;6.22;;;4.13;;
44832;SDS011;30569;51.252;9.830;2023-05-13T03:10:42;6.68;;;4.43;;
44832;SDS011;30569;51.252;9.830;2023-05-13T03:13:08;8.23;;;4.07;;
44832;SDS011;30569;51.252;9.830;2023-05-13T03:15:34;9.10;;;4.70;;
44832;SDS011;30569;51.252;9.830;2023-05-13T03:18:00;6.23;;;4.20;;
44832;SDS011;30569;51.252;9.830;2023-05-13T03:20:26;5.63;;;4.13;;
44832;SDS011;30569;51.252;9.830;2023-05-13T03:22:52;9.52;;;4.00;;
44832;SDS011;30569;51.252;9.830;2023-05-13T03:25:18;6.70;;;4.30;;
44832;SDS011;30569;51.252;9.830;2023-05-13T03:27:44;7.63;;;4.33;;
44832;SDS011;30569;51.252;9.830;2023-05-13T03:30:10;7.93;;;4.60;;
44832;SDS011;30569;51.252;9.830;2023-05-13T03:32:36;8.87;;;4.20;;
44832;SDS011;30569;51.252;9.830;2023-05-13T03:35:01;6.93;;;4.32;;
44832;SDS011;30569;51.252;9.830;2023-05-13T03:37:28;5.93;;;3.77;;
44832;SDS011;30569;51.252;9.830;2023-05-13T03:39:54;8.07;;;3.80;;
44832;SDS011;30569;51.252;9.830;2023-05-13T03:42:20;5.93;;;4.07;;
44832;SDS011;30569;51.252;9.830;2023-05-13T03:44:47;7.50;;;4.10;;
44832;SDS011;30569;51.252;9.830;2023-05-13T03:47:13;7.00;;;4.20;;
44832;SDS011;30569;51.252;9.830;2023-05-13T03:49:39;7.03;;;4.30;;
44832;SDS011;30569;51.252;9.830;2023-05-13T03:52:05;7.47;;;4.60;;
44832;SDS011;30569;51.252;9.830;2023-05-13T03:54:33;8.27;;;4.63;;
44832;SDS011;30569;51.252;9.830;2023-05-13T03:56:59;8.65;;;4.57;;
44832;SDS011;30569;51.252;9.830;2023-05-13T03:59:25;6.22;;;4.38;;
44832;SDS011;30569;51.252;9.830;2023-05-13T04:01:51;8.90;;;4.30;;
44832;SDS011;30569;51.252;9.830;2023-05-13T04:04:17;6.65;;;4.15;;
44832;SDS011;30569;51.252;9.830;2023-05-13T04:06:43;8.40;;;4.68;;
44832;SDS011;30569;51.252;9.830;2023-05-13T04:09:08;6.53;;;4.30;;
44832;SDS011;30569;51.252;9.830;2023-05-13T04:11:35;6.33;;;4.20;;
44832;SDS011;30569;51.252;9.830;2023-05-13T04:14:00;7.83;;;4.03;;
44832;SDS011;30569;51.252;9.830;2023-05-13T04:16:26;7.60;;;4.28;;
44832;SDS011;30569;51.252;9.830;2023-05-13T04:18:53;6.55;;;4.45;;
44832;SDS011;30569;51.252;9.830;2023-05-13T04:21:19;11.13;;;5.00;;
44832;SDS011;30569;51.252;9.830;2023-05-13T04:23:45;13.02;;;5.85;;
44832;SDS011;30569;51.252;9.830;2023-05-13T04:26:11;6.65;;;4.72;;
44832;SDS011;30569;51.252;9.830;2023-05-13T04:28:37;9.63;;;4.38;;
44832;SDS011;30569;51.252;9.830;2023-05-13T04:31:02;6.70;;;4.43;;
44832;SDS011;30569;51.252;9.830;2023-05-13T04:33:28;6.50;;;4.20;;
44832;SDS011;30569;51.252;9.830;2023-05-13T04:35:54;6.45;;;4.35;;
44832;SDS011;30569;51.252;9.830;2023-05-13T04:38:20;7.68;;;4.97;;
44832;SDS011;30569;51.252;9.830;2023-05-13T04:40:46;7.68;;;4.85;;
44832;SDS011;30569;51.252;9.830;2023-05-13T04:43:12;10.45;;;4.68;;
44832;SDS011;30569;51.252;9.830;2023-05-13T04:45:38;6.38;;;3.92;;
44832;SDS011;30569;51.252;9.830;2023-05-13T04:48:03;10.70;;;5.25;;
44832;SDS011;30569;51.252;9.830;2023-05-13T04:50:29;7.00;;;4.88;;
44832;SDS011;30569;51.252;9.830;2023-05-13T04:52:56;7.70;;;4.85;;
44832;SDS011;30569;51.252;9.830;2023-05-13T04:55:22;9.63;;;4.85;;
44832;SDS011;30569;51.252;9.830;2023-05-13T04:57:48;7.35;;;4.88;;
44832;SDS011;30569;51.252;9.830;2023-05-13T05:00:14;6.80;;;4.57;;
44832;SDS011;30569;51.252;9.830;2023-05-13T05:02:40;8.77;;;4.80;;
44832;SDS011;30569;51.252;9.830;2023-05-13T05:05:06;6.47;;;4.50;;
44832;SDS011;30569;51.252;9.830;2023-05-13T05:07:32;9.65;;;4.75;;
44832;SDS011;30569;51.252;9.830;2023-05-13T05:09:58;10.05;;;4.82;;
44832;SDS011;30569;51.252;9.830;2023-05-13T05:12:23;8.15;;;4.88;;
44832;SDS011;30569;51.252;9.830;2023-05-13T05:14:49;8.35;;;5.45;;
44832;SDS011;30569;51.252;9.830;2023-05-13T05:17:15;7.32;;;5.05;;
44832;SDS011;30569;51.252;9.830;2023-05-13T05:19:40;8.57;;;5.20;;
44832;SDS011;30569;51.252;9.830;2023-05-13T05:22:06;7.90;;;5.13;;
44832;SDS011;30569;51.252;9.830;2023-05-13T05:24:32;11.68;;;5.75;;
44832;SDS011;30569;51.252;9.830;2023-05-13T05:26:58;13.65;;;6.38;;
44832;SDS011;30569;51.252;9.830;2023-05-13T05:29:24;8.30;;;5.60;;
44832;SDS011;30569;51.252;9.830;2023-05-13T05:31:50;10.02;;;5.85;;
44832;SDS011;30569;51.252;9.830;2023-05-13T05:34:16;10.02;;;6.07;;
44832;SDS011;30569;51.252;9.830;2023-05-13T05:36:42;9.13;;;5.82;;
44832;SDS011;30569;51.252;9.830;2023-05-13T05:39:08;10.40;;;5.82;;
44832;SDS011;30569;51.252;9.830;2023-05-13T05:41:34;8.02;;;5.30;;
44832;SDS011;30569;51.252;9.830;2023-05-13T05:44:00;8.70;;;5.22;;
44832;SDS011;30569;51.252;9.830;2023-05-13T05:46:26;7.68;;;5.15;;
44832;SDS011;30569;51.252;9.830;2023-05-13T05:48:52;7.25;;;5.10;;
44832;SDS011;30569;51.252;9.830;2023-05-13T05:51:18;12.00;;;5.78;;
44832;SDS011;30569;51.252;9.830;2023-05-13T05:53:44;8.45;;;5.13;;
44832;SDS011;30569;51.252;9.830;2023-05-13T05:56:10;9.65;;;5.28;;
44832;SDS011;30569;51.252;9.830;2023-05-13T05:58:36;11.38;;;5.53;;
44832;SDS011;30569;51.252;9.830;2023-05-13T06:01:02;7.93;;;4.65;;
44832;SDS011;30569;51.252;9.830;2023-05-13T06:03:29;7.78;;;5.10;;
44832;SDS011;30569;51.252;9.830;2023-05-13T06:05:55;9.07;;;4.85;;
44832;SDS011;30569;51.252;9.830;2023-05-13T06:08:21;7.07;;;4.43;;
44832;SDS011;30569;51.252;9.830;2023-05-13T06:10:53;8.40;;;4.65;;
44832;SDS011;30569;51.252;9.830;2023-05-13T06:13:20;9.27;;;4.90;;
44832;SDS011;30569;51.252;9.830;2023-05-13T06:15:46;9.00;;;4.68;;
44832;SDS011;30569;51.252;9.830;2023-05-13T06:18:11;8.48;;;4.85;;
44832;SDS011;30569;51.252;9.830;2023-05-13T06:20:38;6.65;;;4.80;;
44832;SDS011;30569;51.252;9.830;2023-05-13T06:23:04;11.63;;;5.68;;
44832;SDS011;30569;51.252;9.830;2023-05-13T06:25:30;8.70;;;4.60;;
44832;SDS011;30569;51.252;9.830;2023-05-13T06:27:56;7.75;;;4.82;;
44832;SDS011;30569;51.252;9.830;2023-05-13T06:30:22;8.25;;;5.10;;
44832;SDS011;30569;51.252;9.830;2023-05-13T06:32:48;7.63;;;4.47;;
44832;SDS011;30569;51.252;9.830;2023-05-13T06:35:14;8.93;;;4.53;;
44832;SDS011;30569;51.252;9.830;2023-05-13T06:37:40;11.35;;;4.72;;
44832;SDS011;30569;51.252;9.830;2023-05-13T06:40:06;10.27;;;3.92;;
44832;SDS011;30569;51.252;9.830;2023-05-13T06:42:32;8.43;;;4.40;;
44832;SDS011;30569;51.252;9.830;2023-05-13T06:45:00;8.15;;;4.50;;
44832;SDS011;30569;51.252;9.830;2023-05-13T06:47:25;11.70;;;4.90;;
44832;SDS011;30569;51.252;9.830;2023-05-13T06:49:51;7.03;;;4.55;;
44832;SDS011;30569;51.252;9.830;2023-05-13T06:52:17;11.40;;;4.65;;
44832;SDS011;30569;51.252;9.830;2023-05-13T06:54:42;6.70;;;4.20;;
44832;SDS011;30569;51.252;9.830;2023-05-13T06:57:08;6.25;;;3.88;;
44832;SDS011;30569;51.252;9.830;2023-05-13T06:59:34;10.48;;;4.72;;
44832;SDS011;30569;51.252;9.830;2023-05-13T07:02:00;8.23;;;4.20;;
44832;SDS011;30569;51.252;9.830;2023-05-13T07:04:26;8.82;;;3.80;;
44832;SDS011;30569;51.252;9.830;2023-05-13T07:06:54;10.05;;;4.57;;
44832;SDS011;30569;51.252;9.830;2023-05-13T07:09:20;9.63;;;4.30;;
44832;SDS011;30569;51.252;9.830;2023-05-13T07:11:45;7.13;;;4.30;;
44832;SDS011;30569;51.252;9.830;2023-05-13T07:14:11;9.30;;;4.00;;
44832;SDS011;30569;51.252;9.830;2023-05-13T07:16:38;11.40;;;4.07;;
44832;SDS011;30569;51.252;9.830;2023-05-13T07:19:03;6.85;;;3.85;;
44832;SDS011;30569;51.252;9.830;2023-05-13T07:21:29;7.55;;;3.90;;
44832;SDS011;30569;51.252;9.830;2023-05-13T07:23:56;12.93;;;4.63;;
44832;SDS011;30569;51.252;9.830;2023-05-13T07:26:21;8.63;;;3.70;;
44832;SDS011;30569;51.252;9.830;2023-05-13T07:28:47;7.00;;;4.20;;
44832;SDS011;30569;51.252;9.830;2023-05-13T07:31:12;9.43;;;3.45;;
44832;SDS011;30569;51.252;9.830;2023-05-13T07:33:38;9.27;;;3.80;;
44832;SDS011;30569;51.252;9.830;2023-05-13T07:36:04;11.13;;;3.72;;
44832;SDS011;30569;51.252;9.830;2023-05-13T07:38:30;8.15;;;3.58;;
44832;SDS011;30569;51.252;9.830;2023-05-13T07:40:56;6.25;;;3.70;;
44832;SDS011;30569;51.252;9.830;2023-05-13T07:43:21;8.50;;;3.92;;
44832;SDS011;30569;51.252;9.830;2023-05-13T07:45:51;10.13;;;3.63;;
44832;SDS011;30569;51.252;9.830;2023-05-13T07:48:16;7.10;;;3.33;;
44832;SDS011;30569;51.252;9.830;2023-05-13T07:50:45;7.07;;;3.95;;
44832;SDS011;30569;51.252;9.830;2023-05-13T07:53:11;8.93;;;3.50;;
44832;SDS011;30569;51.252;9.830;2023-05-13T07:55:37;6.28;;;3.38;;
44832;SDS011;30569;51.252;9.830;2023-05-13T07:58:02;8.80;;;3.55;;
44832;SDS011;30569;51.252;9.830;2023-05-13T08:00:28;6.45;;;3.58;;
44832;SDS011;30569;51.252;9.830;2023-05-13T08:02:53;9.52;;;3.50;;
44832;SDS011;30569;51.252;9.830;2023-05-13T08:05:20;5.32;;;3.17;;
44832;SDS011;30569;51.252;9.830;2023-05-13T08:07:45;8.50;;;3.47;;
44832;SDS011;30569;51.252;9.830;2023-05-13T08:10:11;5.72;;;3.35;;
44832;SDS011;30569;51.252;9.830;2023-05-13T08:12:37;9.13;;;3.80;;
44832;SDS011;30569;51.252;9.830;2023-05-13T08:15:04;8.20;;;3.60;;
44832;SDS011;30569;51.252;9.830;2023-05-13T08:17:31;8.95;;;3.15;;
44832;SDS011;30569;51.252;9.830;2023-05-13T08:19:57;6.05;;;3.10;;
44832;SDS011;30569;51.252;9.830;2023-05-13T08:22:22;6.72;;;3.50;;
44832;SDS011;30569;51.252;9.830;2023-05-13T08:24:48;8.07;;;3.10;;
44832;SDS011;30569;51.252;9.830;2023-05-13T08:27:14;7.68;;;3.70;;
44832;SDS011;30569;51.252;9.830;2023-05-13T08:29:43;6.45;;;3.03;;
44832;SDS011;30569;51.252;9.830;2023-05-13T08:32:08;5.82;;;3.08;;
44832;SDS011;30569;51.252;9.830;2023-05-13T08:34:37;6.68;;;3.05;;
44832;SDS011;30569;51.252;9.830;2023-05-13T08:37:04;7.53;;;3.05;;
44832;SDS011;30569;51.252;9.830;2023-05-13T08:39:30;8.20;;;3.30;;
44832;SDS011;30569;51.252;9.830;2023-05-13T08:41:55;7.28;;;3.40;;
44832;SDS011;30569;51.252;9.830;2023-05-13T08:44:23;7.35;;;3.30;;
44832;SDS011;30569;51.252;9.830;2023-05-13T08:46:57;6.25;;;2.88;;
44832;SDS011;30569;51.252;9.830;2023-05-13T08:49:33;8.10;;;2.97;;
44832;SDS011;30569;51.252;9.830;2023-05-13T08:51:59;7.85;;;3.00;;
44832;SDS011;30569;51.252;9.830;2023-05-13T08:54:24;8.60;;;3.97;;
44832;SDS011;30569;51.252;9.830;2023-05-13T08:56:52;6.57;;;2.90;;
44832;SDS011;30569;51.252;9.830;2023-05-13T08:59:17;6.47;;;3.03;;
44832;SDS011;30569;51.252;9.830;2023-05-13T09:01:43;7.78;;;3.20;;
44832;SDS011;30569;51.252;9.830;2023-05-13T09:04:09;6.43;;;2.92;;
44832;SDS011;30569;51.252;9.830;2023-05-13T09:06:35;7.22;;;3.22;;
44832;SDS011;30569;51.252;9.830;2023-05-13T09:09:01;9.38;;;3.15;;
44832;SDS011;30569;51.252;9.830;2023-05-13T09:11:27;5.63;;;2.83;;
44832;SDS011;30569;51.252;9.830;2023-05-13T09:14:00;6.32;;;3.05;;
44832;SDS011;30569;51.252;9.830;2023-05-13T09:16:27;6.47;;;3.00;;
44832;SDS011;30569;51.252;9.830;2023-05-13T09:19:01;7.22;;;2.92;;
44832;SDS011;30569;51.252;9.830;2023-05-13T09:21:29;8.27;;;3.22;;
44832;SDS011;30569;51.252;9.830;2023-05-13T09:26:31;5.47;;;3.00;;
44832;SDS011;30569;51.252;9.830;2023-05-13T09:29:17;8.50;;;3.10;;
44832;SDS011;30569;51.252;9.830;2023-05-13T09:31:51;6.60;;;2.80;;
44832;SDS011;30569;51.252;9.830;2023-05-13T09:34:28;8.57;;;3.45;;
44832;SDS011;30569;51.252;9.830;2023-05-13T09:37:04;7.32;;;3.08;;
44832;SDS011;30569;51.252;9.830;2023-05-13T09:39:32;8.60;;;3.53;;
44832;SDS011;30569;51.252;9.830;2023-05-13T09:42:13;6.72;;;3.50;;
44832;SDS011;30569;51.252;9.830;2023-05-13T09:44:43;7.03;;;3.50;;
44832;SDS011;30569;51.252;9.830;2023-05-13T09:47:12;5.68;;;3.25;;
44832;SDS011;30569;51.252;9.830;2023-05-13T09:49:39;5.22;;;2.90;;
44832;SDS011;30569;51.252;9.830;2023-05-13T09:52:06;9.23;;;3.30;;
44832;SDS011;30569;51.252;9.830;2023-05-13T09:54:35;5.90;;;3.10;;
44832;SDS011;30569;51.252;9.830;2023-05-13T09:57:02;6.70;;;3.20;;
44832;SDS011;30569;51.252;9.830;2023-05-13T09:59:34;6.38;;;3.08;;
44832;SDS011;30569;51.252;9.830;2023-05-13T10:02:02;7.10;;;2.97;;
44832;SDS011;30569;51.252;9.830;2023-05-13T10:04:29;5.85;;;2.92;;
44832;SDS011;30569;51.252;9.830;2023-05-13T10:06:56;6.57;;;3.30;;
44832;SDS011;30569;51.252;9.830;2023-05-13T10:09:22;6.47;;;3.20;;
44832;SDS011;30569;51.252;9.830;2023-05-13T10:11:50;6.85;;;3.20;;
44832;SDS011;30569;51.252;9.830;2023-05-13T10:14:17;8.73;;;2.97;;
44832;SDS011;30569;51.252;9.830;2023-05-13T10:16:43;5.40;;;3.17;;
44832;SDS011;30569;51.252;9.830;2023-05-13T10:19:11;7.47;;;3.10;;
44832;SDS011;30569;51.252;9.830;2023-05-13T10:21:37;7.10;;;3.20;;
44832;SDS011;30569;51.252;9.830;2023-05-13T10:24:03;6.20;;;3.15;;
44832;SDS011;30569;51.252;9.830;2023-05-13T10:26:31;8.48;;;3.03;;
44832;SDS011;30569;51.252;9.830;2023-05-13T10:28:56;9.38;;;2.90;;
44832;SDS011;30569;51.252;9.830;2023-05-13T10:31:23;6.70;;;3.10;;
44832;SDS011;30569;51.252;9.830;2023-05-13T10:33:49;6.97;;;2.78;;
44832;SDS011;30569;51.252;9.830;2023-05-13T10:44:59;6.97;;;3.00;;
44832;SDS011;30569;51.252;9.830;2023-05-13T10:47:25;6.38;;;3.35;;
44832;SDS011;30569;51.252;9.830;2023-05-13T10:49:51;8.38;;;3.17;;
44832;SDS011;30569;51.252;9.830;2023-05-13T10:52:17;5.88;;;2.78;;
44832;SDS011;30569;51.252;9.830;2023-05-13T10:54:44;6.05;;;2.90;;
44832;SDS011;30569;51.252;9.830;2023-05-13T10:57:31;7.70;;;2.90;;
44832;SDS011;30569;51.252;9.830;2023-05-13T11:00:34;6.70;;;2.90;;
44832;SDS011;30569;51.252;9.830;2023-05-13T11:02:56;6.53;;;2.75;;
44832;SDS011;30569;51.252;9.830;2023-05-13T11:05:32;6.45;;;2.80;;
44832;SDS011;30569;51.252;9.830;2023-05-13T11:07:57;8.15;;;2.83;;
44832;SDS011;30569;51.252;9.830;2023-05-13T11:10:26;6.97;;;3.20;;
44832;SDS011;30569;51.252;9.830;2023-05-13T11:15:48;5.03;;;2.90;;
44832;SDS011;30569;51.252;9.830;2023-05-13T11:18:17;6.50;;;2.65;;
44832;SDS011;30569;51.252;9.830;2023-05-13T11:20:51;6.30;;;2.90;;
44832;SDS011;30569;51.252;9.830;2023-05-13T11:23:20;6.65;;;2.70;;
44832;SDS011;30569;51.252;9.830;2023-05-13T11:25:46;9.18;;;2.90;;
44832;SDS011;30569;51.252;9.830;2023-05-13T11:28:56;8.00;;;2.85;;
44832;SDS011;30569;51.252;9.830;2023-05-13T11:31:23;5.25;;;2.60;;
44832;SDS011;30569;51.252;9.830;2023-05-13T11:36:33;9.35;;;3.20;;
44832;SDS011;30569;51.252;9.830;2023-05-13T11:41:39;6.15;;;2.63;;
44832;SDS011;30569;51.252;9.830;2023-05-13T11:44:10;5.28;;;2.92;;
44832;SDS011;30569;51.252;9.830;2023-05-13T11:46:37;6.82;;;2.97;;
44832;SDS011;30569;51.252;9.830;2023-05-13T11:49:03;10.10;;;2.88;;
44832;SDS011;30569;51.252;9.830;2023-05-13T11:51:29;6.25;;;2.80;;
44832;SDS011;30569;51.252;9.830;2023-05-13T11:53:59;8.02;;;3.00;;
44832;SDS011;30569;51.252;9.830;2023-05-13T11:56:26;5.97;;;3.00;;
44832;SDS011;30569;51.252;9.830;2023-05-13T11:58:52;7.03;;;3.10;;
44832;SDS011;30569;51.252;9.830;2023-05-13T12:01:18;6.15;;;2.72;;
44832;SDS011;30569;51.252;9.830;2023-05-13T12:03:45;6.13;;;2.72;;
44832;SDS011;30569;51.252;9.830;2023-05-13T12:06:11;4.78;;;2.90;;
44832;SDS011;30569;51.252;9.830;2023-05-13T12:08:43;6.07;;;3.05;;
44832;SDS011;30569;51.252;9.830;2023-05-13T12:11:09;6.10;;;2.80;;
44832;SDS011;30569;51.252;9.830;2023-05-13T12:13:37;7.25;;;3.00;;
44832;SDS011;30569;51.252;9.830;2023-05-13T12:16:04;11.20;;;2.80;;
44832;SDS011;30569;51.252;9.830;2023-05-13T12:18:31;8.15;;;2.67;;
44832;SDS011;30569;51.252;9.830;2023-05-13T12:20:57;6.35;;;2.90;;
44832;SDS011;30569;51.252;9.830;2023-05-13T12:23:23;8.57;;;2.72;;
44832;SDS011;30569;51.252;9.830;2023-05-13T12:25:49;9.45;;;2.50;;
44832;SDS011;30569;51.252;9.830;2023-05-13T12:30:55;5.20;;;2.70;;
44832;SDS011;30569;51.252;9.830;2023-05-13T12:33:31;5.30;;;2.70;;
44832;SDS011;30569;51.252;9.830;2023-05-13T12:39:03;8.68;;;2.80;;
44832;SDS011;30569;51.252;9.830;2023-05-13T12:41:34;5.80;;;3.00;;
44832;SDS011;30569;51.252;9.830;2023-05-13T12:44:01;6.05;;;2.70;;
44832;SDS011;30569;51.252;9.830;2023-05-13T12:46:35;5.20;;;2.80;;
44832;SDS011;30569;51.252;9.830;2023-05-13T12:49:02;6.47;;;3.28;;
44832;SDS011;30569;51.252;9.830;2023-05-13T12:51:29;7.38;;;2.70;;
44832;SDS011;30569;51.252;9.830;2023-05-13T12:53:55;5.78;;;2.78;;
44832;SDS011;30569;51.252;9.830;2023-05-13T12:56:22;5.90;;;3.10;;
44832;SDS011;30569;51.252;9.830;2023-05-13T12:58:48;17.00;;;3.47;;
44832;SDS011;30569;51.252;9.830;2023-05-13T13:01:15;8.43;;;3.70;;
44832;SDS011;30569;51.252;9.830;2023-05-13T13:03:41;7.75;;;2.92;;
44832;SDS011;30569;51.252;9.830;2023-05-13T13:06:06;7.80;;;3.10;;
44832;SDS011;30569;51.252;9.830;2023-05-13T13:08:34;7.07;;;2.80;;
44832;SDS011;30569;51.252;9.830;2023-05-13T13:11:00;7.47;;;3.40;;
44832;SDS011;30569;51.252;9.830;2023-05-13T13:13:26;5.13;;;2.47;;
44832;SDS011;30569;51.252;9.830;2023-05-13T13:15:52;5.95;;;2.80;;
44832;SDS011;30569;51.252;9.830;2023-05-13T13:18:17;7.72;;;2.67;;
44832;SDS011;30569;51.252;9.830;2023-05-13T13:20:43;6.60;;;2.78;;
44832;SDS011;30569;51.252;9.830;2023-05-13T13:23:08;7.38;;;2.95;;
44832;SDS011;30569;51.252;9.830;2023-05-13T13:25:34;5.20;;;3.00;;
44832;SDS011;30569;51.252;9.830;2023-05-13T13:28:00;8.18;;;3.60;;
44832;SDS011;30569;51.252;9.830;2023-05-13T13:30:26;5.07;;;2.95;;
44832;SDS011;30569;51.252;9.830;2023-05-13T13:32:51;7.65;;;2.83;;
44832;SDS011;30569;51.252;9.830;2023-05-13T13:35:17;8.27;;;3.00;;
44832;SDS011;30569;51.252;9.830;2023-05-13T13:37:42;10.15;;;3.10;;
44832;SDS011;30569;51.252;9.830;2023-05-13T13:40:08;6.10;;;2.78;;
44832;SDS011;30569;51.252;9.830;2023-05-13T13:42:34;7.75;;;2.90;;
44832;SDS011;30569;51.252;9.830;2023-05-13T13:45:00;6.97;;;3.05;;
44832;SDS011;30569;51.252;9.830;2023-05-13T13:47:27;6.03;;;2.90;;
44832;SDS011;30569;51.252;9.830;2023-05-13T13:49:53;4.45;;;2.60;;
44832;SDS011;30569;51.252;9.830;2023-05-13T13:52:18;4.93;;;2.47;;
44832;SDS011;30569;51.252;9.830;2023-05-13T13:54:46;7.40;;;2.80;;
44832;SDS011;30569;51.252;9.830;2023-05-13T13:57:12;4.53;;;2.45;;
44832;SDS011;30569;51.252;9.830;2023-05-13T13:59:38;8.00;;;3.03;;
44832;SDS011;30569;51.252;9.830;2023-05-13T14:02:04;8.38;;;2.65;;
44832;SDS011;30569;51.252;9.830;2023-05-13T14:04:29;4.97;;;2.22;;
44832;SDS011;30569;51.252;9.830;2023-05-13T14:06:57;5.15;;;2.65;;
44832;SDS011;30569;51.252;9.830;2023-05-13T14:09:22;5.85;;;2.60;;
44832;SDS011;30569;51.252;9.830;2023-05-13T14:11:48;7.68;;;2.45;;
44832;SDS011;30569;51.252;9.830;2023-05-13T14:14:14;4.88;;;2.42;;
44832;SDS011;30569;51.252;9.830;2023-05-13T14:16:39;7.72;;;2.55;;
44832;SDS011;30569;51.252;9.830;2023-05-13T14:19:05;4.32;;;2.75;;
44832;SDS011;30569;51.252;9.830;2023-05-13T14:21:31;9.30;;;2.75;;
44832;SDS011;30569;51.252;9.830;2023-05-13T14:23:56;8.45;;;2.45;;
44832;SDS011;30569;51.252;9.830;2023-05-13T14:26:22;6.35;;;2.53;;
44832;SDS011;30569;51.252;9.830;2023-05-13T14:28:48;6.60;;;2.70;;
44832;SDS011;30569;51.252;9.830;2023-05-13T14:31:13;4.90;;;2.50;;
44832;SDS011;30569;51.252;9.830;2023-05-13T14:33:39;7.72;;;2.67;;
44832;SDS011;30569;51.252;9.830;2023-05-13T14:36:05;8.27;;;2.50;;
44832;SDS011;30569;51.252;9.830;2023-05-13T14:38:32;7.32;;;3.35;;
44832;SDS011;30569;51.252;9.830;2023-05-13T14:40:57;4.43;;;2.47;;
44832;SDS011;30569;51.252;9.830;2023-05-13T14:43:23;4.47;;;2.35;;
44832;SDS011;30569;51.252;9.830;2023-05-13T14:45:49;6.10;;;2.60;;
44832;SDS011;30569;51.252;9.830;2023-05-13T14:48:15;7.20;;;2.53;;
44832;SDS011;30569;51.252;9.830;2023-05-13T14:50:41;9.48;;;3.33;;
44832;SDS011;30569;51.252;9.830;2023-05-13T14:53:08;8.20;;;3.13;;
44832;SDS011;30569;51.252;9.830;2023-05-13T14:55:35;6.18;;;2.97;;
44832;SDS011;30569;51.252;9.830;2023-05-13T14:58:00;5.70;;;2.97;;
44832;SDS011;30569;51.252;9.830;2023-05-13T15:00:27;4.35;;;2.55;;
44832;SDS011;30569;51.252;9.830;2023-05-13T15:02:53;7.95;;;3.15;;
44832;SDS011;30569;51.252;9.830;2023-05-13T15:05:18;7.80;;;3.20;;
44832;SDS011;30569;51.252;9.830;2023-05-13T15:07:44;8.18;;;2.63;;
44832;SDS011;30569;51.252;9.830;2023-05-13T15:10:10;8.50;;;3.00;;
44832;SDS011;30569;51.252;9.830;2023-05-13T15:12:35;7.95;;;2.95;;